Guvercinlik, Turkey

4:39 AM +03 on January 20, 2017 (GMT +0300)
Tolga istasyon | | Change Station

Elev 2943 ft 39.92 °N, 32.84 °E | Updated 1 minute ago

Ice Pellets
Ice Pellets
34.7 °F
Feels Like 35 °F
N
0.7
Wind Variable Wind from South
Gusts 2.2 mph

Today
High -- | Low -- °F
--% Chance of Precip.
Yesterday
High -- | Low -- °F
Precip. -- in
Pressure 30.24 in
Visibility 6.2 miles
Clouds Mostly Cloudy 3700 ft
Mostly Cloudy 9000 ft
Windchill 35 °F
Dew Point 28 °F
Humidity 77%
Rainfall 0.00 in
Snow Depth Not available.
8:06 AM 5:54 PM
Waning Gibbous, 49% visible
SPECI LTAD 200057Z VRB01KT 9999 -RASN BKN037 BKN090 00/M01 Q1024 TEMPO 4000 BR RMK RWY29 00000KT
Pressure 30.24 in
Visibility 6.2 miles
Clouds Mostly Cloudy 3700 ft
Mostly Cloudy 9000 ft
Windchill 35 °F
Dew Point 28 °F
Humidity 77%
Rainfall 0.00 in
Snow Depth Not available.
8:06 AM 5:54 PM
Waning Gibbous, 49% visible
SPECI LTAD 200057Z VRB01KT 9999 -RASN BKN037 BKN090 00/M01 Q1024 TEMPO 4000 BR RMK RWY29 00000KT

Get Your Daily Forecast Email!

Thanks for signing up!

Be on the lookout for a verification email in your inbox.

You'll start receiving the daily forecast at 8 AM.

×

10-Day Weather Forecast

×

Almanac

Astronomy

Jan. 20, 2017 Rise Set
Actual Time
Civil Twilight
Nautical Twilight
Astronomical Twilight
Moon
Length of Visible Light
Length of Day
Tomorrow will be .
, % of the Moon is Illuminated

Today's Extremes

Country Highs Country Lows

Community

WunderPhotos

Upload Photos

1,962,540 photos uploaded!

WunderBlog® & News

Nearby

Air Quality

  Air Quality AQ Index Pollutant
Not available.

Snow Depth

Station Depth Elevation

Earthquake Activity

City Distance Mag. Time & Date
Minimum magnitude displayed is 2.5.

Coastal Water Temperatures

Place Temperature

Stations

Nearby Weather Stations

Station Location Temp. Windchill Dew Point Humidity Wind Precip. Elev Updated Type